Time;durP1;ratioP1;P1;durP2;ratioP2;P2;SDS_P1;SDS_P2;PMS_P1;PMS_P2;Temp;Humidity;BMP_temperature;BMP_pressure;BME280_temperature;BME280_humidity;BME280_pressure;Samples;Min_cycle;Max_cycle;Signal;HPM_P1;HPM_P2
2022/11/25 00:01:52;;;;;;;19.23;3.17;;;7.10;99.90;;;;;;4961683;28;20007;-95
2022/11/25 00:04:19;;;;;;;9.40;1.10;;;7.10;99.90;;;;;;4947280;29;20032;-95
2022/11/25 00:06:45;;;;;;;9.10;2.03;;;7.10;99.90;;;;;;4951812;29;20027;-94
2022/11/25 00:09:12;;;;;;;13.35;1.50;;;7.20;99.90;;;;;;4948589;29;20012;-93
2022/11/25 00:11:43;;;;;;;10.70;2.17;;;7.20;99.90;;;;;;4951893;29;20035;-95
2022/11/25 00:14:14;;;;;;;5.13;1.50;;;7.20;99.90;;;;;;4946419;29;20055;-95
2022/11/25 00:16:46;;;;;;;5.20;1.10;;;7.20;99.90;;;;;;4940623;29;20015;-95
2022/11/25 00:19:20;;;;;;;8.23;1.58;;;7.20;99.90;;;;;;4969854;29;20019;-94
2022/11/25 00:21:47;;;;;;;8.98;1.25;;;7.20;99.90;;;;;;4963453;29;20039;-94
2022/11/25 00:24:18;;;;;;;4.57;1.35;;;7.20;99.90;;;;;;4957503;29;20028;-94
2022/11/25 00:26:44;;;;;;;;;;;7.20;99.90;;;;;;4958168;28;20030;-95
2022/11/25 00:29:13;;;;;;;3.30;1.00;;;7.20;99.90;;;;;;4940348;29;19921;-94
2022/11/25 00:31:40;;;;;;;9.38;1.30;;;7.20;99.90;;;;;;4955268;29;20038;-96
2022/11/25 00:34:10;;;;;;;9.10;1.23;;;7.30;99.90;;;;;;4957338;29;20110;-94
2022/11/25 00:36:37;;;;;;;4.60;1.10;;;7.30;99.90;;;;;;4973208;28;20039;-95
2022/11/25 00:39:15;;;;;;;8.45;2.47;;;7.30;99.90;;;;;;4955852;29;20087;-95
2022/11/25 00:44:35;;;;;;;15.13;3.60;;;7.40;99.90;;;;;;4968418;28;20042;-95
2022/11/25 00:47:06;;;;;;;10.85;2.78;;;7.30;99.90;;;;;;4957446;29;20043;-95
2022/11/25 00:49:34;;;;;;;7.88;2.78;;;7.30;99.90;;;;;;4959334;29;20046;-94
2022/11/25 00:52:22;;;;;;;12.15;2.88;;;7.30;99.90;;;;;;4940272;29;20039;-95
2022/11/25 00:54:53;;;;;;;8.48;2.95;;;7.30;99.90;;;;;;4974392;28;20060;-96
2022/11/25 00:57:27;;;;;;;5.68;2.53;;;7.30;99.90;;;;;;4957493;29;20067;-96
2022/11/25 00:59:53;;;;;;;5.00;1.08;;;7.40;99.90;;;;;;4955801;28;20019;-95
2022/11/25 01:02:25;;;;;;;7.32;2.60;;;7.40;99.90;;;;;;4958683;29;20042;-95
2022/11/25 01:04:51;;;;;;;5.82;2.25;;;7.40;99.90;;;;;;4953684;29;20031;-96
2022/11/25 01:07:41;;;;;;;7.78;2.25;;;7.50;99.90;;;;;;4952103;29;20034;-94
2022/11/25 01:10:39;;;;;;;13.67;4.07;;;7.50;99.90;;;;;;4947021;28;20026;-94
2022/11/25 01:13:06;;;;;;;4.90;1.05;;;7.50;99.90;;;;;;4961538;29;20314;-95
2022/11/25 01:15:36;;;;;;;8.20;2.30;;;7.50;99.90;;;;;;4944789;29;20023;-95
2022/11/25 01:18:11;;;;;;;9.90;1.88;;;7.50;99.90;;;;;;4945921;29;20007;-95
2022/11/25 01:21:07;;;;;;;7.55;1.25;;;7.50;99.90;;;;;;4947204;28;20035;-95
2022/11/25 01:23:33;;;;;;;8.70;1.40;;;7.50;99.90;;;;;;4958846;29;20049;-95
2022/11/25 01:26:23;;;;;;;6.60;0.88;;;7.50;99.90;;;;;;4943258;29;20043;-95
2022/11/25 01:28:57;;;;;;;4.50;0.90;;;7.50;99.90;;;;;;4952065;29;20031;-94
2022/11/25 01:31:25;;;;;;;1.38;0.50;;;7.40;99.90;;;;;;4953769;29;20043;-95
2022/11/25 01:34:07;;;;;;;5.35;1.10;;;7.40;99.90;;;;;;4957734;29;20031;-95
2022/11/25 01:36:33;;;;;;;8.70;1.23;;;7.40;99.90;;;;;;4927500;29;20031;-94
2022/11/25 01:39:00;;;;;;;3.03;0.80;;;7.40;99.90;;;;;;4959104;29;20027;-95
2022/11/25 01:41:36;;;;;;;2.67;0.90;;;7.40;99.90;;;;;;4962024;28;20018;-94
2022/11/25 01:44:51;;;;;;;5.47;0.90;;;7.40;99.90;;;;;;4963017;29;20027;-94
2022/11/25 01:47:43;;;;;;;1.10;0.60;;;7.40;99.90;;;;;;4964471;29;20023;-95
2022/11/25 01:50:11;;;;;;;7.13;1.13;;;7.40;99.90;;;;;;4965865;28;20073;-91
2022/11/25 01:53:20;;;;;;;5.28;0.77;;;7.50;99.90;;;;;;4966738;28;20039;-93
2022/11/25 01:55:58;;;;;;;5.20;0.70;;;7.40;99.90;;;;;;4982221;28;20082;-94
2022/11/25 01:58:52;;;;;;;10.20;1.50;;;7.40;99.90;;;;;;4965400;28;20032;-93
2022/11/25 02:01:58;;;;;;;5.30;0.90;;;7.40;99.90;;;;;;4967053;28;20035;-94
2022/11/25 02:04:39;;;;;;;5.07;1.05;;;7.40;99.90;;;;;;4980688;28;20035;-95
2022/11/25 02:07:49;;;;;;;9.57;2.28;;;7.40;99.90;;;;;;4982467;28;20043;-94
2022/11/25 02:10:57;;;;;;;8.32;1.27;;;7.40;99.90;;;;;;4908275;29;20021;-95
2022/11/25 02:13:35;;;;;;;5.53;0.90;;;7.50;99.90;;;;;;4909835;29;20048;-95
2022/11/25 02:19:52;;;;;;;11.07;1.40;;;7.50;99.90;;;;;;4909224;29;20056;-95
2022/11/25 02:22:41;;;;;;;7.43;1.10;;;7.40;99.90;;;;;;4923606;29;20060;-93
2022/11/25 02:25:44;;;;;;;12.27;2.60;;;7.40;99.90;;;;;;4924870;29;20017;-93
2022/11/25 02:32:22;;;;;;;8.75;1.70;;;7.50;99.90;;;;;;4924206;29;20086;-95
2022/11/25 02:34:56;;;;;;;3.42;1.35;;;7.50;99.90;;;;;;4921084;29;20077;-96
2022/11/25 02:37:39;;;;;;;4.90;0.77;;;7.60;99.90;;;;;;4904236;29;20055;-95
2022/11/25 02:40:12;;;;;;;10.57;0.93;;;7.60;99.90;;;;;;4905542;29;20044;-96
2022/11/25 02:42:44;;;;;;;8.23;1.10;;;7.60;99.90;;;;;;4904457;29;20044;-96
2022/11/25 02:45:29;;;;;;;9.48;0.95;;;7.60;99.90;;;;;;4936129;28;20054;-92
2022/11/25 02:47:57;;;;;;;9.48;1.35;;;7.60;99.90;;;;;;4964345;28;20007;-94
2022/11/25 02:50:23;;;;;;;3.78;1.10;;;7.70;99.90;;;;;;4938693;29;20047;-95
2022/11/25 02:52:49;;;;;;;4.00;1.00;;;7.70;99.90;;;;;;4946519;28;20115;-94
2022/11/25 02:55:15;;;;;;;5.13;1.20;;;7.60;99.90;;;;;;4946379;28;20043;-94
2022/11/25 02:57:40;;;;;;;5.10;1.13;;;7.60;99.90;;;;;;4950156;29;20093;-95
2022/11/25 03:00:08;;;;;;;5.00;1.00;;;7.50;99.90;;;;;;4950641;29;20031;-96
2022/11/25 03:02:33;;;;;;;9.63;1.20;;;7.50;99.90;;;;;;4943723;29;20115;-96
2022/11/25 03:05:00;;;;;;;8.88;1.00;;;7.50;99.90;;;;;;4960001;29;20047;-95
2022/11/25 03:07:26;;;;;;;5.97;1.00;;;7.50;99.90;;;;;;4962840;29;20020;-95
2022/11/25 03:10:10;;;;;;;6.13;1.40;;;7.40;99.90;;;;;;4947685;28;20032;-90
2022/11/25 03:13:16;;;;;;;10.10;1.30;;;7.50;99.90;;;;;;4981773;28;20046;-93
2022/11/25 03:16:22;;;;;;;8.38;1.23;;;7.40;99.90;;;;;;4981663;28;20019;-94
2022/11/25 03:19:11;;;;;;;6.25;1.00;;;7.50;99.90;;;;;;4978136;28;20030;-93
2022/11/25 03:21:41;;;;;;;9.77;1.38;;;7.50;99.90;;;;;;4960465;29;20079;-96
2022/11/25 03:25:15;;;;;;;11.18;2.15;;;7.50;99.90;;;;;;4979429;28;20055;-93
2022/11/25 03:27:43;;;;;;;7.45;1.20;;;7.50;99.90;;;;;;4922314;29;20069;-95
2022/11/25 03:30:14;;;;;;;5.30;0.98;;;7.50;99.90;;;;;;4965003;28;20050;-94
2022/11/25 03:32:44;;;;;;;7.82;1.30;;;7.50;99.90;;;;;;4960118;29;20016;-94
2022/11/25 03:35:11;;;;;;;9.88;2.65;;;7.50;99.90;;;;;;4976238;28;20039;-95
2022/11/25 03:37:38;;;;;;;6.68;1.33;;;7.50;99.90;;;;;;4957397;29;20039;-95
2022/11/25 03:40:05;;;;;;;10.60;3.17;;;7.50;99.90;;;;;;4955269;29;20026;-95
2022/11/25 03:42:31;;;;;;;6.80;1.50;;;7.50;99.90;;;;;;4953046;29;20079;-95
2022/11/25 03:44:56;;;;;;;7.85;1.08;;;7.40;99.90;;;;;;4949409;28;20087;-95
2022/11/25 03:47:46;;;;;;;8.02;1.35;;;7.50;99.90;;;;;;4963756;28;20027;-95
2022/11/25 03:50:15;;;;;;;4.90;1.20;;;7.40;99.90;;;;;;4963924;28;20015;-94
2022/11/25 03:52:42;;;;;;;6.83;1.20;;;7.40;99.90;;;;;;4964393;28;20110;-94
2022/11/25 03:55:14;;;;;;;12.13;1.50;;;7.40;99.90;;;;;;4980615;28;20028;-96
2022/11/25 03:57:40;;;;;;;10.82;1.52;;;7.40;99.90;;;;;;4961881;28;20036;-95
2022/11/25 04:00:51;;;;;;;16.70;1.73;;;7.40;99.90;;;;;;4963420;28;20159;-94
2022/11/25 04:03:45;;;;;;;11.20;1.55;;;7.40;99.90;;;;;;4962834;28;20038;-93
2022/11/25 04:06:44;;;;;;;8.85;1.38;;;7.40;99.90;;;;;;4980002;28;20016;-96
2022/11/25 04:09:17;;;;;;;9.32;1.40;;;7.30;99.90;;;;;;4980572;28;20019;-93
2022/11/25 04:14:56;;;;;;;14.95;1.70;;;7.30;99.90;;;;;;4980929;28;20103;-93
2022/11/25 04:17:30;;;;;;;7.47;2.15;;;7.40;99.90;;;;;;4972245;28;20099;-93
2022/11/25 04:19:55;;;;;;;9.60;1.60;;;7.30;99.90;;;;;;4946938;29;20051;-94
2022/11/25 04:22:45;;;;;;;10.18;1.40;;;7.30;99.90;;;;;;4979471;28;20019;-93
2022/11/25 04:25:12;;;;;;;8.63;1.20;;;7.30;99.90;;;;;;4963166;28;20015;-93
2022/11/25 04:27:38;;;;;;;15.23;3.60;;;7.20;99.90;;;;;;4948610;28;20097;-93
2022/11/25 04:30:19;;;;;;;8.75;1.30;;;7.20;99.90;;;;;;4962998;28;20023;-93
2022/11/25 04:32:48;;;;;;;9.73;1.92;;;7.20;99.90;;;;;;4963940;28;20023;-93
2022/11/25 04:35:15;;;;;;;12.40;1.33;;;7.20;99.90;;;;;;4964186;28;20040;-93
2022/11/25 04:37:51;;;;;;;5.05;0.93;;;7.20;99.90;;;;;;4962871;28;20057;-94
2022/11/25 04:40:28;;;;;;;10.50;1.20;;;7.20;99.90;;;;;;4961337;28;20058;-93
2022/11/25 04:42:55;;;;;;;12.50;2.00;;;7.20;99.90;;;;;;4963848;28;20031;-94
2022/11/25 04:45:28;;;;;;;10.80;1.20;;;7.30;99.90;;;;;;4959738;28;20431;-93
2022/11/25 04:48:16;;;;;;;10.77;1.90;;;7.30;99.90;;;;;;4961542;28;20099;-94
2022/11/25 04:50:47;;;;;;;11.48;1.27;;;7.20;99.90;;;;;;4964040;28;20011;-93
2022/11/25 04:53:35;;;;;;;;;;;7.20;99.90;;;;;;4964619;28;20019;-94
2022/11/25 04:56:36;;;;;;;9.95;0.88;;;7.20;99.90;;;;;;4980418;28;19945;-93
2022/11/25 04:59:49;;;;;;;8.13;1.10;;;7.10;99.90;;;;;;4979682;28;20039;-93
2022/11/25 05:06:16;;;;;;;5.55;1.20;;;7.10;99.90;;;;;;4922209;29;20020;-92
2022/11/25 05:09:06;;;;;;;17.67;2.88;;;7.00;99.90;;;;;;4922271;29;20029;-94
2022/11/25 05:12:19;;;;;;;6.93;1.80;;;7.00;99.90;;;;;;4922279;29;20037;-95
2022/11/25 05:15:13;;;;;;;9.23;1.80;;;7.00;99.90;;;;;;4925452;29;20026;-94
2022/11/25 05:18:28;;;;;;;8.98;1.15;;;7.00;99.90;;;;;;4921559;29;20031;-93
2022/11/25 05:24:51;;;;;;;6.55;1.63;;;6.90;99.90;;;;;;4926100;29;20069;-93
2022/11/25 05:27:35;;;;;;;8.80;1.30;;;6.90;99.90;;;;;;4925467;29;20032;-95
2022/11/25 05:33:45;;;;;;;6.28;1.10;;;6.80;99.90;;;;;;4964579;28;20043;-93
2022/11/25 05:36:11;;;;;;;6.30;1.23;;;6.80;99.90;;;;;;4967172;28;20036;-93
2022/11/25 05:38:52;;;;;;;4.13;1.38;;;6.70;99.90;;;;;;4967508;28;20024;-93
2022/11/25 05:41:29;;;;;;;7.15;1.48;;;6.70;99.90;;;;;;4966857;28;20920;-93
2022/11/25 05:44:37;;;;;;;9.63;1.25;;;6.60;99.90;;;;;;4967214;28;20039;-94
2022/11/25 05:47:29;;;;;;;8.50;1.40;;;6.60;99.90;;;;;;4951537;28;20467;-94
2022/11/25 05:49:56;;;;;;;13.80;1.80;;;6.60;99.90;;;;;;4960518;28;20024;-93
2022/11/25 05:52:24;;;;;;;13.82;1.25;;;6.50;99.90;;;;;;4966082;28;20023;-94
2022/11/25 05:54:59;;;;;;;8.40;1.50;;;6.50;99.90;;;;;;4965781;28;20035;-94
2022/11/25 05:57:34;;;;;;;19.50;2.63;;;6.50;99.90;;;;;;4966391;28;20035;-93
2022/11/25 06:00:03;;;;;;;7.63;1.00;;;6.50;99.90;;;;;;4965908;28;20038;-93
2022/11/25 06:02:29;;;;;;;7.85;1.50;;;6.50;99.90;;;;;;4965290;28;20029;-92
2022/11/25 06:04:55;;;;;;;9.75;1.30;;;6.40;99.90;;;;;;4966361;28;20043;-93
2022/11/25 06:07:29;;;;;;;9.43;1.45;;;6.40;99.90;;;;;;4965937;28;20027;-93
2022/11/25 06:10:10;;;;;;;11.82;2.10;;;6.40;99.90;;;;;;4982548;28;20007;-92
2022/11/25 06:13:07;;;;;;;8.60;1.50;;;6.40;99.90;;;;;;4982470;28;20119;-93
2022/11/25 06:15:39;;;;;;;7.53;1.23;;;6.40;99.90;;;;;;4952634;28;20015;-93
2022/11/25 06:18:26;;;;;;;8.73;1.20;;;6.40;99.90;;;;;;4963529;28;20022;-93
2022/11/25 06:20:56;;;;;;;14.40;1.50;;;6.30;99.90;;;;;;4965904;28;20033;-92
2022/11/25 06:23:32;;;;;;;10.68;1.63;;;6.40;99.90;;;;;;4965748;28;20027;-92
2022/11/25 06:26:07;;;;;;;10.73;1.92;;;6.30;99.90;;;;;;4965336;28;20051;-93
2022/11/25 06:28:34;;;;;;;9.57;1.70;;;6.30;99.90;;;;;;4965319;28;20020;-95
2022/11/25 06:31:07;;;;;;;11.13;1.45;;;6.30;99.90;;;;;;4981757;28;20037;-93
2022/11/25 06:33:37;;;;;;;7.95;1.70;;;6.30;99.90;;;;;;4961944;28;20008;-95
2022/11/25 06:36:08;;;;;;;8.40;1.17;;;6.20;99.90;;;;;;4965373;28;20218;-94
2022/11/25 06:38:58;;;;;;;15.90;1.63;;;6.20;99.90;;;;;;4965390;28;20020;-92
2022/11/25 06:41:27;;;;;;;6.80;1.60;;;6.20;99.90;;;;;;4965516;28;20051;-93
2022/11/25 06:43:54;;;;;;;7.22;1.40;;;6.20;99.90;;;;;;4965169;28;20067;-93
2022/11/25 06:46:26;;;;;;;15.95;1.40;;;6.20;99.90;;;;;;4981753;28;20444;-93
2022/11/25 06:48:59;;;;;;;11.15;1.55;;;6.10;99.90;;;;;;4963658;28;20122;-90
2022/11/25 06:51:29;;;;;;;9.07;1.60;;;6.10;99.90;;;;;;4981617;28;20013;-93
2022/11/25 06:54:07;;;;;;;10.98;1.33;;;6.10;99.90;;;;;;4963068;28;20008;-93
2022/11/25 06:56:34;;;;;;;11.88;1.25;;;6.00;99.90;;;;;;4980987;28;20020;-93
2022/11/25 06:59:04;;;;;;;6.50;1.55;;;6.00;99.90;;;;;;4964845;28;20091;-94
2022/11/25 07:01:31;;;;;;;7.40;1.33;;;6.00;99.90;;;;;;4981438;28;20031;-92
2022/11/25 07:04:10;;;;;;;9.27;1.15;;;5.90;99.90;;;;;;4981339;28;20015;-93
2022/11/25 07:06:45;;;;;;;16.35;1.77;;;5.90;99.90;;;;;;4963868;28;20035;-92
2022/11/25 07:09:18;;;;;;;9.23;1.08;;;5.90;99.90;;;;;;4966898;28;20023;-93
2022/11/25 07:11:45;;;;;;;9.13;1.70;;;5.80;99.90;;;;;;4964516;28;20026;-94
2022/11/25 07:14:14;;;;;;;8.25;1.33;;;5.80;99.90;;;;;;4964582;28;20023;-94
2022/11/25 07:16:45;;;;;;;7.47;1.10;;;5.70;99.90;;;;;;4963964;28;20043;-93
2022/11/25 07:19:16;;;;;;;5.95;1.08;;;5.70;99.90;;;;;;4978807;28;20023;-94
2022/11/25 07:21:44;;;;;;;11.55;1.83;;;5.60;99.90;;;;;;4964520;28;20016;-93
2022/11/25 07:24:14;;;;;;;8.30;1.30;;;5.60;99.90;;;;;;4964250;28;20027;-93
2022/11/25 07:26:42;;;;;;;7.15;1.27;;;5.60;99.90;;;;;;4964647;28;20011;-92
2022/11/25 07:29:13;;;;;;;8.25;1.23;;;5.60;99.90;;;;;;4981104;28;20015;-92
2022/11/25 07:31:52;;;;;;;7.95;1.35;;;5.50;99.90;;;;;;4979125;28;20023;-94
2022/11/25 07:34:22;;;;;;;7.90;1.30;;;5.50;99.90;;;;;;4964338;28;20020;-92
2022/11/25 07:36:50;;;;;;;10.82;1.38;;;5.40;99.90;;;;;;4963719;28;20023;-92
2022/11/25 07:39:25;;;;;;;13.13;1.90;;;5.40;99.90;;;;;;4963164;28;20020;-92
2022/11/25 07:41:54;;;;;;;9.18;1.27;;;5.40;99.90;;;;;;4964140;28;20030;-94
2022/11/25 07:44:33;;;;;;;7.22;1.20;;;5.40;99.90;;;;;;4963911;28;20178;-93
2022/11/25 07:47:02;;;;;;;13.55;2.67;;;5.30;99.90;;;;;;4964273;28;20011;-92
2022/11/25 07:49:31;;;;;;;9.75;1.27;;;5.30;99.90;;;;;;4981150;28;20011;-93
2022/11/25 07:52:03;;;;;;;11.93;2.05;;;5.30;99.90;;;;;;4980747;28;20022;-93
2022/11/25 07:54:31;;;;;;;6.60;1.50;;;5.30;99.90;;;;;;4961294;28;20047;-92
2022/11/25 07:57:00;;;;;;;17.80;3.03;;;5.30;99.90;;;;;;4964071;28;20011;-92
2022/11/25 07:59:43;;;;;;;20.75;3.28;;;5.30;99.90;;;;;;5136725;27;20416;-93
2022/11/25 08:02:09;;;;;;;9.18;1.30;;;5.30;99.90;;;;;;5113474;28;20016;-94
2022/11/25 08:04:37;;;;;;;14.27;3.22;;;5.30;99.90;;;;;;5111257;28;20012;-96
2022/11/25 08:07:18;;;;;;;7.00;2.15;;;5.30;99.90;;;;;;5113052;28;20025;-96
2022/11/25 08:09:47;;;;;;;19.08;2.38;;;5.30;99.90;;;;;;5097499;28;20066;-96
2022/11/25 08:12:16;;;;;;;11.32;1.33;;;5.30;99.90;;;;;;5093783;28;20012;-96
2022/11/25 08:14:48;;;;;;;11.32;1.48;;;5.30;99.90;;;;;;5092972;28;20020;-96
2022/11/25 08:17:20;;;;;;;12.60;2.25;;;5.30;99.90;;;;;;5105942;28;20017;-95
2022/11/25 08:19:52;;;;;;;17.02;1.67;;;5.40;99.90;;;;;;5112166;28;20100;-95
2022/11/25 08:22:18;;;;;;;16.23;2.72;;;5.50;99.90;;;;;;5080742;28;20037;-95
2022/11/25 08:24:44;;;;;;;16.23;2.15;;;5.50;99.90;;;;;;5091121;28;20027;-94
2022/11/25 08:27:10;;;;;;;14.57;2.75;;;5.60;99.90;;;;;;5094166;28;20044;-95
2022/11/25 08:29:35;;;;;;;15.07;2.20;;;5.60;99.90;;;;;;5091113;28;20036;-94
2022/11/25 08:32:01;;;;;;;21.50;2.60;;;5.60;99.90;;;;;;5092656;28;20073;-95
2022/11/25 08:34:27;;;;;;;12.48;2.28;;;5.60;99.90;;;;;;5092794;28;20017;-94
2022/11/25 08:36:53;;;;;;;13.75;1.70;;;5.70;99.90;;;;;;5087360;28;20085;-95
2022/11/25 08:39:24;;;;;;;12.65;2.08;;;5.80;99.90;;;;;;5087417;28;20032;-92
2022/11/25 08:42:07;;;;;;;13.40;2.42;;;5.80;99.90;;;;;;5092248;28;20032;-94
2022/11/25 08:44:42;;;;;;;21.23;2.05;;;5.80;99.90;;;;;;5094479;28;20033;-92
2022/11/25 08:47:13;;;;;;;20.95;2.67;;;5.90;99.90;;;;;;5093994;28;20028;-94
2022/11/25 08:49:39;;;;;;;;;;;5.90;99.90;;;;;;5094231;28;20024;-92
2022/11/25 08:52:07;;;;;;;16.25;1.85;;;5.90;99.90;;;;;;5090799;28;19973;-94
2022/11/25 08:54:33;;;;;;;18.77;2.65;;;6.00;99.90;;;;;;5092475;28;20029;-95
2022/11/25 08:57:06;;;;;;;11.98;2.15;;;6.00;99.90;;;;;;5093332;28;20044;-94
2022/11/25 08:59:33;;;;;;;16.65;2.20;;;6.10;99.90;;;;;;5093343;28;20033;-94
2022/11/25 09:02:10;;;;;;;22.73;2.53;;;6.20;99.90;;;;;;5093622;28;20005;-94
2022/11/25 09:04:40;;;;;;;15.27;2.45;;;6.30;99.90;;;;;;5093969;28;20051;-95
2022/11/25 09:07:11;;;;;;;21.33;3.65;;;6.40;99.90;;;;;;5091597;28;20043;-94
2022/11/25 09:09:38;;;;;;;23.92;2.20;;;6.50;99.90;;;;;;5088156;28;20041;-94
2022/11/25 09:12:04;;;;;;;17.42;1.90;;;6.60;99.90;;;;;;5080113;28;20014;-96
2022/11/25 09:14:30;;;;;;;8.90;1.95;;;6.70;99.90;;;;;;5072136;28;20025;-92
2022/11/25 09:16:57;;;;;;;11.05;1.20;;;6.90;99.90;;;;;;5070504;28;20043;-92
2022/11/25 09:19:24;;;;;;;19.25;2.60;;;7.00;99.90;;;;;;5079235;28;20045;-92
2022/11/25 09:21:51;;;;;;;17.48;2.55;;;7.20;99.90;;;;;;5093473;28;20013;-93
2022/11/25 09:24:16;;;;;;;14.70;1.67;;;7.40;99.90;;;;;;5079113;28;20017;-94
2022/11/25 09:26:48;;;;;;;18.17;2.50;;;7.60;99.90;;;;;;5079417;28;20005;-94
2022/11/25 09:29:14;;;;;;;11.25;1.75;;;7.80;99.90;;;;;;5079486;28;20039;-93
2022/11/25 09:31:42;;;;;;;18.45;2.10;;;8.00;99.90;;;;;;5078963;28;20009;-93
2022/11/25 09:34:09;;;;;;;15.80;2.00;;;8.30;99.90;;;;;;5079816;28;20005;-93
2022/11/25 09:36:35;;;;;;;12.98;2.42;;;8.50;99.90;;;;;;5094552;28;20131;-95
2022/11/25 09:39:01;;;;;;;20.55;1.98;;;8.70;99.90;;;;;;5075991;28;20032;-91
2022/11/25 09:48:18;;;;;;;23.90;3.35;;;9.20;99.90;;;;;;5068202;28;20043;-94
2022/11/25 09:51:18;;;;;;;19.23;3.50;;;9.50;99.90;;;;;;5082381;28;20013;-95
2022/11/25 09:53:53;;;;;;;26.93;3.13;;;9.70;99.90;;;;;;5085550;28;20112;-95
2022/11/25 09:56:28;;;;;;;16.63;3.35;;;10.00;99.90;;;;;;5078821;28;20320;-93
2022/11/25 09:59:25;;;;;;;12.77;2.22;;;10.20;99.90;;;;;;5090257;28;20040;-93
2022/11/25 10:02:29;;;;;;;13.68;1.90;;;10.50;99.90;;;;;;5067705;28;20021;-93
2022/11/25 10:05:06;;;;;;;15.35;1.90;;;10.80;99.90;;;;;;5069147;28;20009;-94
2022/11/25 10:07:47;;;;;;;15.80;2.70;;;11.10;99.90;;;;;;5064545;28;20009;-95
2022/11/25 10:10:41;;;;;;;16.50;1.70;;;11.40;99.90;;;;;;5077290;28;20021;-93
2022/11/25 10:13:24;;;;;;;9.07;1.67;;;11.70;99.90;;;;;;5053665;28;20037;-95
2022/11/25 10:15:52;;;;;;;12.40;1.77;;;11.90;99.90;;;;;;5077414;28;20036;-93
2022/11/25 10:18:33;;;;;;;13.40;2.60;;;12.10;99.90;;;;;;5065269;28;20021;-94
2022/11/25 10:21:01;;;;;;;12.07;2.08;;;12.10;99.90;;;;;;5073605;28;20021;-94
2022/11/25 10:23:35;;;;;;;15.23;2.00;;;12.30;99.90;;;;;;5071597;28;20025;-96
2022/11/25 10:26:29;;;;;;;17.20;3.58;;;12.50;99.90;;;;;;5077000;28;20066;-94
2022/11/25 10:29:21;;;;;;;8.60;2.10;;;12.80;99.90;;;;;;5062433;28;20025;-93
2022/11/25 10:31:54;;;;;;;11.43;1.95;;;13.20;99.90;;;;;;5057994;28;20025;-93
2022/11/25 10:34:30;;;;;;;12.88;2.13;;;13.60;99.90;;;;;;5071012;28;20044;-95
2022/11/25 10:36:59;;;;;;;15.60;2.60;;;13.80;99.90;;;;;;5062182;28;20025;-95
2022/11/25 10:39:30;;;;;;;15.40;2.25;;;13.90;99.90;;;;;;5061732;28;20033;-95
2022/11/25 10:42:03;;;;;;;;;;;14.00;99.90;;;;;;5062086;28;20021;-94
2022/11/25 10:44:37;;;;;;;13.15;2.05;;;14.10;99.90;;;;;;5060190;28;19911;-94
2022/11/25 10:47:17;;;;;;;13.48;2.78;;;14.10;99.90;;;;;;5060619;28;20051;-92
2022/11/25 10:49:46;;;;;;;;;;;14.20;99.90;;;;;;5057510;28;20032;-95
2022/11/25 10:52:13;;;;;;;12.82;2.10;;;14.50;99.90;;;;;;5058334;28;19952;-95
2022/11/25 10:54:39;;;;;;;17.05;2.08;;;14.70;99.90;;;;;;5043689;28;20048;-95
2022/11/25 10:57:17;;;;;;;11.90;2.15;;;14.80;99.90;;;;;;5059840;28;20021;-94
2022/11/25 10:59:57;;;;;;;17.13;2.58;;;14.80;99.90;;;;;;5065196;28;20049;-94
2022/11/25 11:02:29;;;;;;;13.32;2.30;;;14.80;99.90;;;;;;5067095;28;20025;-93
2022/11/25 11:05:07;;;;;;;10.45;2.30;;;14.90;99.80;;;;;;5059116;28;20033;-96
2022/11/25 11:07:36;;;;;;;15.00;1.80;;;15.10;99.10;;;;;;5058012;28;20087;-94
2022/11/25 11:10:16;;;;;;;10.13;2.30;;;15.30;97.80;;;;;;5062839;28;20490;-93
2022/11/25 11:13:01;;;;;;;13.55;3.20;;;15.40;96.40;;;;;;5063493;28;20047;-95
2022/11/25 11:15:30;;;;;;;10.65;2.05;;;15.60;95.80;;;;;;5066497;28;20024;-95
2022/11/25 11:17:58;;;;;;;12.00;2.08;;;15.60;93.00;;;;;;5060097;28;20033;-94
2022/11/25 11:20:27;;;;;;;16.83;2.60;;;15.50;92.80;;;;;;5059509;28;20490;-95
2022/11/25 11:23:09;;;;;;;13.65;1.58;;;15.70;93.00;;;;;;5055366;28;20434;-94
2022/11/25 11:25:41;;;;;;;11.35;2.20;;;15.80;92.40;;;;;;5054744;28;20039;-93
2022/11/25 11:28:33;;;;;;;11.18;1.90;;;15.90;92.20;;;;;;5055504;28;20035;-95
2022/11/25 11:31:02;;;;;;;10.25;1.75;;;16.00;91.90;;;;;;5056944;28;20486;-96
2022/11/25 11:33:37;;;;;;;9.50;1.80;;;16.10;91.10;;;;;;5055924;28;20028;-96
2022/11/25 11:36:33;;;;;;;8.07;1.60;;;16.10;90.30;;;;;;5054339;28;20052;-94
2022/11/25 11:39:17;;;;;;;16.95;2.30;;;16.30;90.20;;;;;;5054300;28;20383;-95
2022/11/25 11:42:01;;;;;;;12.60;1.85;;;16.50;89.00;;;;;;5057525;28;20021;-95
2022/11/25 11:45:08;;;;;;;12.48;2.38;;;16.50;84.90;;;;;;5055034;28;20110;-95
2022/11/25 11:47:49;;;;;;;10.02;1.85;;;16.50;85.60;;;;;;5055469;28;20037;-96
2022/11/25 11:50:26;;;;;;;9.45;1.52;;;16.70;84.80;;;;;;5056544;28;20021;-95
2022/11/25 11:52:55;;;;;;;10.57;1.90;;;16.90;83.70;;;;;;5055234;28;20078;-96
2022/11/25 11:55:42;;;;;;;14.70;2.00;;;16.90;81.30;;;;;;5056413;28;20050;-95
2022/11/25 11:58:37;;;;;;;15.15;2.35;;;16.70;80.90;;;;;;5055859;28;20044;-96
2022/11/25 12:01:14;;;;;;;8.05;1.65;;;16.80;81.30;;;;;;5048066;28;20076;-95
2022/11/25 12:04:09;;;;;;;10.40;2.03;;;17.00;80.70;;;;;;5057711;28;20029;-95
2022/11/25 12:06:37;;;;;;;13.48;2.45;;;17.20;80.50;;;;;;5035681;28;20043;-95
2022/11/25 12:09:09;;;;;;;10.98;1.92;;;17.10;78.60;;;;;;5055599;28;20025;-96
2022/11/25 12:11:41;;;;;;;8.50;1.83;;;17.20;79.00;;;;;;5054109;28;20056;-96
2022/11/25 12:14:10;;;;;;;11.15;1.90;;;17.50;78.80;;;;;;5053870;28;20544;-94
2022/11/25 12:16:43;;;;;;;12.18;1.75;;;17.70;77.50;;;;;;5054540;28;20108;-95
2022/11/25 12:19:24;;;;;;;14.27;2.55;;;17.80;77.00;;;;;;5054373;28;20119;-94
2022/11/25 12:22:21;;;;;;;11.27;2.08;;;18.00;76.90;;;;;;5054182;28;20040;-95
2022/11/25 12:24:58;;;;;;;9.70;1.88;;;18.30;75.40;;;;;;5051493;28;20033;-94
2022/11/25 12:27:36;;;;;;;13.80;2.13;;;18.40;75.20;;;;;;5045167;28;20033;-95
2022/11/25 12:30:15;;;;;;;12.25;2.08;;;18.50;74.10;;;;;;5069481;28;20108;-93
2022/11/25 12:32:49;;;;;;;11.02;1.95;;;18.60;74.20;;;;;;5053218;28;20025;-91
2022/11/25 12:35:31;;;;;;;11.05;1.60;;;18.60;73.10;;;;;;5042976;28;20028;-95
2022/11/25 12:38:24;;;;;;;11.93;2.00;;;18.50;72.90;;;;;;5050584;28;20067;-95
2022/11/25 12:41:19;;;;;;;6.93;1.45;;;18.40;72.50;;;;;;5053843;28;20473;-94
2022/11/25 12:44:09;;;;;;;8.20;1.73;;;18.20;72.40;;;;;;5052543;28;20036;-94
2022/11/25 12:46:55;;;;;;;;;;;18.00;72.30;;;;;;5053429;28;20576;-95
2022/11/25 12:49:26;;;;;;;10.80;1.83;;;18.00;72.70;;;;;;5056064;28;19944;-95
2022/11/25 12:52:15;;;;;;;6.30;1.65;;;17.90;72.70;;;;;;5056290;28;20078;-94
2022/11/25 12:55:24;;;;;;;10.15;2.00;;;17.80;72.70;;;;;;5057856;28;20482;-94
2022/11/25 12:58:10;;;;;;;10.02;2.08;;;17.80;73.20;;;;;;5055681;28;20498;-95
2022/11/25 13:00:52;;;;;;;11.07;1.95;;;17.80;73.00;;;;;;5055324;28;20071;-96
2022/11/25 13:03:39;;;;;;;6.50;1.50;;;17.80;72.80;;;;;;5070676;28;20017;-96
2022/11/25 13:06:33;;;;;;;12.95;2.08;;;17.80;72.60;;;;;;5070230;28;20025;-92
2022/11/25 13:09:26;;;;;;;11.85;2.47;;;18.00;73.10;;;;;;5070400;28;20033;-94
2022/11/25 13:12:06;;;;;;;9.32;1.85;;;18.10;72.40;;;;;;5068476;28;20036;-95
2022/11/25 13:14:51;;;;;;;6.18;1.85;;;18.20;72.20;;;;;;5054375;28;20097;-95
2022/11/25 13:17:17;;;;;;;4.20;1.55;;;18.40;71.90;;;;;;5070550;28;20029;-94
2022/11/25 13:19:42;;;;;;;11.38;2.05;;;18.50;70.60;;;;;;5068682;28;20540;-93
2022/11/25 13:22:20;;;;;;;7.43;1.63;;;18.30;70.20;;;;;;5054712;28;20029;-94
2022/11/25 13:24:46;;;;;;;11.30;1.92;;;18.20;70.70;;;;;;5053534;28;20088;-94
2022/11/25 13:27:44;;;;;;;10.70;1.63;;;18.20;71.10;;;;;;5054553;28;20045;-94
2022/11/25 13:30:31;;;;;;;9.32;1.80;;;18.20;71.40;;;;;;5021421;28;20025;-95
2022/11/25 13:33:17;;;;;;;9.77;1.85;;;18.30;71.10;;;;;;5070896;28;20041;-94
2022/11/25 13:35:42;;;;;;;11.05;1.90;;;18.30;71.30;;;;;;5055682;28;20047;-92
2022/11/25 13:38:34;;;;;;;12.73;2.78;;;18.40;71.40;;;;;;5054189;28;20032;-93
2022/11/25 13:41:11;;;;;;;8.65;1.60;;;18.50;70.90;;;;;;5071158;28;20033;-91
2022/11/25 13:44:13;;;;;;;7.60;1.77;;;18.70;70.60;;;;;;5054856;28;20021;-93
2022/11/25 13:46:46;;;;;;;16.42;2.25;;;18.80;69.80;;;;;;5054739;28;20033;-94
2022/11/25 13:49:51;;;;;;;19.17;2.58;;;18.70;69.40;;;;;;5056325;28;20188;-94
2022/11/25 13:52:16;;;;;;;15.40;2.90;;;18.60;70.00;;;;;;5054592;28;20647;-94
2022/11/25 13:54:52;;;;;;;9.93;2.05;;;18.80;70.30;;;;;;5055774;28;20043;-95
2022/11/25 13:57:24;;;;;;;10.93;1.65;;;19.00;70.10;;;;;;5054659;28;20037;-92
2022/11/25 13:59:52;;;;;;;10.45;1.65;;;19.10;69.60;;;;;;5054301;28;20049;-94
2022/11/25 14:02:27;;;;;;;8.18;2.00;;;19.20;69.10;;;;;;5056079;28;20025;-93
2022/11/25 14:05:43;;;;;;;9.13;2.00;;;19.30;69.30;;;;;;5051538;28;20025;-95
2022/11/25 14:08:42;;;;;;;14.45;2.17;;;19.30;68.30;;;;;;5033702;28;20029;-95
2022/11/25 14:11:42;;;;;;;13.23;2.35;;;19.00;67.90;;;;;;5014342;28;20026;-92
2022/11/25 14:14:22;;;;;;;14.55;2.40;;;18.90;68.60;;;;;;5011988;28;20037;-91